createdAt,value
2019-04-10T00:02:09.557Z,93.90
2019-04-10T00:04:39.088Z,93.80
2019-04-10T00:07:14.971Z,94.40
2019-04-10T00:09:39.580Z,94.10
2019-04-10T00:12:09.516Z,93.90
2019-04-10T00:14:38.959Z,93.70
2019-04-10T00:17:08.986Z,93.10
2019-04-10T00:19:38.420Z,93.90
2019-04-10T00:22:07.788Z,93.40
2019-04-10T00:24:37.875Z,93.90
2019-04-10T00:27:07.375Z,93.70
2019-04-10T00:29:36.725Z,94.30
2019-04-10T00:32:06.100Z,93.80
2019-04-10T00:34:35.841Z,92.90
2019-04-10T00:37:05.859Z,93.20
2019-04-10T00:39:35.407Z,93.60
2019-04-10T00:42:05.064Z,93.30
2019-04-10T00:44:35.404Z,93.40
2019-04-10T00:47:04.902Z,92.70
2019-04-10T00:49:34.255Z,92.70
2019-04-10T00:52:03.871Z,93.00
2019-04-10T00:54:33.366Z,93.10
2019-04-10T00:57:03.222Z,93.10
2019-04-10T00:59:32.759Z,93.00
2019-04-10T01:02:02.542Z,93.00
2019-04-10T01:04:31.972Z,92.70
2019-04-10T01:07:02.255Z,92.30
2019-04-10T01:09:31.850Z,92.70
2019-04-10T01:12:01.529Z,93.00
2019-04-10T01:14:31.783Z,92.80
2019-04-10T01:17:02.152Z,93.00
2019-04-10T01:19:32.262Z,92.70
2019-04-10T01:22:03.054Z,92.60
2019-04-10T01:24:33.437Z,93.30
2019-04-10T01:27:03.446Z,92.80
2019-04-10T01:29:33.605Z,92.80
2019-04-10T01:32:03.686Z,92.90
2019-04-10T01:34:33.702Z,93.10
2019-04-10T01:37:03.203Z,92.60
2019-04-10T01:39:34.667Z,93.80
2019-04-10T01:42:04.330Z,94.10
2019-04-10T01:44:33.679Z,93.90
2019-04-10T01:47:03.134Z,92.20
2019-04-10T01:49:33.506Z,94.00
2019-04-10T01:52:03.022Z,94.00
2019-04-10T01:54:33.278Z,93.20
2019-04-10T01:57:04.028Z,93.60
2019-04-10T01:59:35.955Z,93.10
2019-04-10T02:02:19.547Z,92.90
2019-04-10T02:04:51.308Z,93.50
2019-04-10T02:07:20.209Z,93.50
2019-04-10T02:09:49.798Z,93.50
2019-04-10T02:12:19.339Z,93.30
2019-04-10T02:14:48.890Z,94.00
2019-04-10T02:17:18.414Z,94.40
2019-04-10T02:19:48.193Z,94.50
2019-04-10T02:22:17.790Z,94.60
2019-04-10T02:24:47.296Z,94.60
2019-04-10T02:27:16.787Z,93.90
2019-04-10T02:29:46.142Z,94.30
2019-04-10T02:32:16.601Z,94.30
2019-04-10T02:34:48.329Z,94.50
2019-04-10T02:37:19.111Z,94.30
2019-04-10T02:39:52.977Z,94.00
2019-04-10T02:42:20.870Z,94.10
2019-04-10T02:44:54.197Z,94.10
2019-04-10T02:47:23.755Z,94.20
2019-04-10T02:49:54.497Z,94.80
2019-04-10T02:52:24.578Z,94.20
2019-04-10T02:54:54.199Z,94.20
2019-04-10T02:57:25.327Z,94.50
2019-04-10T02:59:55.790Z,94.70
2019-04-10T03:02:26.646Z,94.20
2019-04-10T03:04:57.323Z,94.70
2019-04-10T03:07:28.350Z,95.20
2019-04-10T03:10:08.821Z,94.40
2019-04-10T03:12:30.140Z,94.60
2019-04-10T03:15:01.167Z,94.20
2019-04-10T03:17:30.651Z,94.40
2019-04-10T03:20:00.256Z,94.20
2019-04-10T03:22:29.858Z,94.20
2019-04-10T03:25:00.257Z,94.10
2019-04-10T03:27:30.282Z,93.10
2019-04-10T03:30:00.206Z,92.30
2019-04-10T03:32:48.063Z,92.70
2019-04-10T03:35:34.622Z,92.10
2019-04-10T03:38:04.154Z,92.20
2019-04-10T03:40:33.512Z,92.30
2019-04-10T03:43:03.539Z,92.30
2019-04-10T03:45:33.115Z,92.20
2019-04-10T03:48:02.480Z,92.70
2019-04-10T03:50:32.058Z,92.80
2019-04-10T03:53:02.173Z,92.70
2019-04-10T03:55:32.646Z,93.10
2019-04-10T03:58:02.850Z,93.00
2019-04-10T04:00:32.354Z,93.20
2019-04-10T04:03:02.521Z,92.50
2019-04-10T04:05:32.824Z,92.10
2019-04-10T04:08:04.049Z,92.80
2019-04-10T04:10:33.397Z,92.40
2019-04-10T04:13:04.951Z,92.40
2019-04-10T04:15:34.162Z,92.00
2019-04-10T04:18:04.503Z,91.30
2019-04-10T04:20:34.944Z,92.00
2019-04-10T04:23:05.465Z,92.20
2019-04-10T04:25:34.960Z,92.40
2019-04-10T04:28:04.653Z,92.40
2019-04-10T04:30:34.394Z,92.30
2019-04-10T04:33:04.759Z,93.50
2019-04-10T04:35:34.647Z,92.30
2019-04-10T04:38:04.143Z,92.90
2019-04-10T04:40:34.377Z,92.80
2019-04-10T04:43:03.755Z,92.00
2019-04-10T04:45:33.413Z,92.20
2019-04-10T04:48:02.899Z,92.40
2019-04-10T04:50:34.091Z,92.70
2019-04-10T04:53:04.468Z,92.40
2019-04-10T04:55:33.987Z,92.30
2019-04-10T04:58:04.106Z,92.00
2019-04-10T05:00:34.078Z,92.40
2019-04-10T05:03:04.002Z,91.40
2019-04-10T05:05:33.671Z,91.10
2019-04-10T05:08:05.349Z,90.60
2019-04-10T05:10:34.222Z,90.50
2019-04-10T05:13:04.033Z,90.60
2019-04-10T05:15:33.526Z,90.10
2019-04-10T05:18:03.985Z,90.70
2019-04-10T05:20:44.115Z,89.90
2019-04-10T05:23:06.231Z,90.40
2019-04-10T05:25:35.997Z,90.00
2019-04-10T05:28:05.825Z,90.00
2019-04-10T05:30:35.684Z,90.00
2019-04-10T05:33:06.296Z,89.90
2019-04-10T05:35:36.382Z,88.80
2019-04-10T05:38:05.867Z,88.40
2019-04-10T05:43:26.068Z,89.70
2019-04-10T05:45:55.798Z,88.50
2019-04-10T05:48:26.381Z,87.50
2019-04-10T05:51:02.270Z,89.30
2019-04-10T05:53:26.907Z,88.90
2019-04-10T05:55:56.261Z,87.80
2019-04-10T05:58:25.827Z,86.70
2019-04-10T06:00:56.891Z,87.40
2019-04-10T06:03:26.266Z,86.70
2019-04-10T06:05:56.404Z,87.80
2019-04-10T06:08:26.916Z,86.00
2019-04-10T06:10:56.370Z,87.10
2019-04-10T06:13:27.593Z,86.60
2019-04-10T06:15:57.272Z,87.40
2019-04-10T06:18:27.162Z,85.80
2019-04-10T06:20:56.727Z,86.50
2019-04-10T06:23:26.137Z,87.00
2019-04-10T06:25:56.351Z,85.50
2019-04-10T06:28:27.436Z,86.40
2019-04-10T06:30:56.904Z,85.30
2019-04-10T06:33:27.131Z,84.80
2019-04-10T06:35:57.400Z,85.80
2019-04-10T06:38:26.859Z,85.60
2019-04-10T06:40:56.379Z,85.60
2019-04-10T06:43:25.882Z,84.80
2019-04-10T06:45:55.796Z,84.50
2019-04-10T06:48:25.888Z,85.30
2019-04-10T06:50:55.713Z,85.00
2019-04-10T06:53:25.200Z,85.50
2019-04-10T06:55:54.579Z,84.10
2019-04-10T06:58:23.991Z,84.70
2019-04-10T07:00:54.886Z,83.30
2019-04-10T07:03:33.897Z,84.30
2019-04-10T07:06:07.268Z,84.50
2019-04-10T07:08:27.461Z,83.10
2019-04-10T07:11:05.101Z,84.90
2019-04-10T07:13:28.185Z,85.90
2019-04-10T07:15:58.509Z,85.20
2019-04-10T07:18:28.435Z,85.30
2019-04-10T07:21:00.834Z,83.00
2019-04-10T07:23:31.590Z,84.90
2019-04-10T07:26:00.102Z,83.10
2019-04-10T07:28:29.856Z,83.80
2019-04-10T07:31:04.733Z,84.10
2019-04-10T07:33:30.941Z,83.10
2019-04-10T07:36:04.255Z,81.60
2019-04-10T07:38:31.615Z,82.90
2019-04-10T07:41:00.954Z,83.20
2019-04-10T07:43:30.664Z,81.80
2019-04-10T07:46:00.189Z,82.10
2019-04-10T07:48:29.570Z,83.40
2019-04-10T07:50:58.933Z,84.20
2019-04-10T07:53:28.287Z,84.50
2019-04-10T07:56:05.661Z,83.40
2019-04-10T07:58:29.181Z,84.00
2019-04-10T08:00:58.938Z,82.80
2019-04-10T08:03:28.806Z,82.10
2019-04-10T08:05:58.291Z,83.00
2019-04-10T08:08:27.915Z,83.40
2019-04-10T08:10:57.690Z,82.90
2019-04-10T08:13:27.076Z,82.70
2019-04-10T08:15:56.449Z,83.30
2019-04-10T08:18:25.879Z,82.40
2019-04-10T08:20:55.240Z,81.60
2019-04-10T08:23:24.618Z,78.70
2019-04-10T08:25:54.046Z,79.90
2019-04-10T08:28:24.099Z,79.60
2019-04-10T08:30:54.647Z,80.30
2019-04-10T08:33:24.298Z,81.20
2019-04-10T08:35:54.722Z,81.50
2019-04-10T08:38:24.385Z,80.90
2019-04-10T08:40:54.465Z,81.20
2019-04-10T08:43:24.498Z,79.30
2019-04-10T08:45:55.007Z,79.50
2019-04-10T08:48:27.541Z,79.70
2019-04-10T08:50:56.734Z,80.50
2019-04-10T08:53:27.224Z,78.60
2019-04-10T08:55:56.995Z,80.00
2019-04-10T08:58:27.118Z,78.60
2019-04-10T09:00:56.704Z,80.20
2019-04-10T09:03:26.723Z,79.40
2019-04-10T09:05:56.236Z,78.80
2019-04-10T09:08:26.608Z,77.30
2019-04-10T09:10:56.244Z,76.50
2019-04-10T09:13:25.610Z,76.10
2019-04-10T09:15:56.161Z,76.70
2019-04-10T09:18:25.759Z,75.10
2019-04-10T09:20:55.300Z,74.10
2019-04-10T09:23:37.422Z,74.50
2019-04-10T09:25:55.724Z,75.50
2019-04-10T09:28:25.173Z,74.70
2019-04-10T09:30:55.356Z,75.70
2019-04-10T09:33:27.772Z,73.50
2019-04-10T09:35:57.078Z,72.20
2019-04-10T09:38:26.595Z,72.10
2019-04-10T09:40:55.949Z,72.20
2019-04-10T09:43:25.369Z,71.70
2019-04-10T09:45:55.741Z,72.40
2019-04-10T09:48:26.351Z,71.90
2019-04-10T09:50:56.167Z,70.80
2019-04-10T09:53:26.637Z,70.40
2019-04-10T09:55:56.767Z,70.20
2019-04-10T09:58:26.283Z,70.80
2019-04-10T10:00:56.479Z,68.00
2019-04-10T10:03:26.271Z,68.60
2019-04-10T10:05:57.104Z,66.80
2019-04-10T10:08:27.224Z,67.00
2019-04-10T10:10:57.571Z,66.20
2019-04-10T10:13:27.724Z,66.40
2019-04-10T10:15:57.326Z,68.00
2019-04-10T10:18:27.672Z,68.20
2019-04-10T10:20:57.142Z,65.80
2019-04-10T10:23:30.701Z,67.80
2019-04-10T10:26:00.175Z,67.30
2019-04-10T10:28:29.545Z,64.00
2019-04-10T10:30:59.862Z,66.40
2019-04-10T10:33:29.929Z,65.90
2019-04-10T10:35:59.822Z,62.70
2019-04-10T10:38:29.498Z,64.90
2019-04-10T10:40:59.176Z,64.80
2019-04-10T10:43:28.862Z,66.90
2019-04-10T10:45:58.918Z,64.40
2019-04-10T10:48:29.482Z,62.00
2019-04-10T10:50:59.298Z,61.50
2019-04-10T10:53:28.734Z,61.00
2019-04-10T10:55:58.176Z,62.20
2019-04-10T10:58:27.983Z,58.50
2019-04-10T11:00:57.722Z,60.20
2019-04-10T11:03:27.312Z,58.70
2019-04-10T11:05:56.690Z,60.00
2019-04-10T11:08:26.912Z,59.30
2019-04-10T11:10:57.568Z,58.70
2019-04-10T11:13:27.473Z,59.00
2019-04-10T11:15:56.916Z,58.50
2019-04-10T11:18:26.312Z,58.20
2019-04-10T11:21:00.661Z,59.70
2019-04-10T11:23:26.796Z,58.20
2019-04-10T11:25:57.697Z,58.80
2019-04-10T11:28:30.226Z,57.10
2019-04-10T11:30:58.688Z,58.60
2019-04-10T11:33:28.432Z,57.60
2019-04-10T11:35:57.951Z,56.90
2019-04-10T11:38:27.378Z,56.30
2019-04-10T11:40:59.483Z,56.80
2019-04-10T11:43:30.093Z,57.50
2019-04-10T11:46:02.205Z,54.50
2019-04-10T11:48:31.163Z,56.20
2019-04-10T11:51:03.043Z,56.00
2019-04-10T11:53:36.255Z,55.20
2019-04-10T11:58:43.621Z,54.10
2019-04-10T12:03:41.017Z,55.30
2019-04-10T12:06:08.033Z,53.80
2019-04-10T12:09:04.362Z,53.00
2019-04-10T12:11:13.717Z,53.40
2019-04-10T12:13:40.706Z,54.60
2019-04-10T12:16:10.159Z,52.70
2019-04-10T12:18:40.480Z,51.20
2019-04-10T12:21:10.047Z,50.80
2019-04-10T12:23:39.488Z,50.10
2019-04-10T12:26:09.631Z,50.90
2019-04-10T12:28:40.203Z,52.30
2019-04-10T12:31:10.078Z,54.40
2019-04-10T12:33:39.716Z,52.10
2019-04-10T12:36:10.775Z,51.90
2019-04-10T12:38:40.167Z,52.40
2019-04-10T12:41:09.592Z,53.80
2019-04-10T12:43:38.976Z,51.70
2019-04-10T12:46:08.653Z,52.90
2019-04-10T12:48:38.856Z,52.30
2019-04-10T12:51:08.434Z,52.00
2019-04-10T12:53:38.043Z,50.90
2019-04-10T12:56:08.253Z,50.60
2019-04-10T12:58:37.670Z,51.10
2019-04-10T13:01:08.725Z,50.20
2019-04-10T13:03:38.986Z,51.70
2019-04-10T13:06:09.529Z,50.50
2019-04-10T13:08:52.607Z,50.70
2019-04-10T13:11:10.230Z,49.20
2019-04-10T13:13:42.662Z,49.20
2019-04-10T13:16:13.939Z,50.20
2019-04-10T13:18:43.469Z,50.70
2019-04-10T13:21:12.905Z,50.20
2019-04-10T13:23:42.351Z,49.80
2019-04-10T13:26:11.768Z,49.90
2019-04-10T13:28:41.531Z,49.30
2019-04-10T13:31:10.961Z,50.20
2019-04-10T13:33:40.631Z,50.80
2019-04-10T13:36:10.084Z,50.70
2019-04-10T13:38:39.710Z,50.60
2019-04-10T13:41:10.223Z,51.00
2019-04-10T13:43:40.153Z,51.80
2019-04-10T13:46:10.840Z,52.20
2019-04-10T13:48:40.237Z,52.20
2019-04-10T13:51:09.602Z,50.80
2019-04-10T13:53:39.874Z,51.80
2019-04-10T13:56:09.388Z,50.80
2019-04-10T13:58:38.776Z,51.30
2019-04-10T14:01:09.843Z,50.80
2019-04-10T14:03:41.528Z,51.20
2019-04-10T14:06:11.656Z,51.10
2019-04-10T14:09:01.819Z,50.20
2019-04-10T14:11:13.154Z,49.50
2019-04-10T14:13:42.690Z,49.10
2019-04-10T14:16:12.759Z,50.90
2019-04-10T14:18:43.149Z,50.10
2019-04-10T14:21:15.612Z,50.20
2019-04-10T14:23:43.855Z,50.40
2019-04-10T14:26:24.545Z,50.30
2019-04-10T14:28:54.017Z,51.00
2019-04-10T14:31:32.183Z,51.30
2019-04-10T14:34:03.390Z,51.50
2019-04-10T14:36:33.110Z,50.80
2019-04-10T14:39:13.115Z,51.70
2019-04-10T14:41:33.873Z,50.50
2019-04-10T14:44:04.064Z,50.00
2019-04-10T14:46:33.735Z,49.60
2019-04-10T14:49:03.311Z,50.80
2019-04-10T14:51:32.773Z,50.10
2019-04-10T14:54:03.663Z,51.50
2019-04-10T14:56:34.459Z,50.60
2019-04-10T14:59:04.332Z,50.30
2019-04-10T15:01:33.990Z,50.50
2019-04-10T15:04:04.553Z,51.10
2019-04-10T15:06:34.344Z,49.00
2019-04-10T15:09:06.206Z,49.80
2019-04-10T15:11:35.668Z,49.10
2019-04-10T15:14:05.606Z,50.20
2019-04-10T15:16:35.221Z,49.00
2019-04-10T15:19:05.267Z,50.00
2019-04-10T15:21:34.732Z,49.90
2019-04-10T15:24:04.915Z,49.20
2019-04-10T15:26:34.362Z,48.70
2019-04-10T15:29:04.439Z,47.90
2019-04-10T15:31:33.876Z,48.00
2019-04-10T15:34:03.717Z,48.10
2019-04-10T15:36:33.934Z,49.30
2019-04-10T15:39:06.469Z,48.10
2019-04-10T15:41:36.131Z,47.60
2019-04-10T15:44:05.776Z,48.00
2019-04-10T15:46:35.361Z,48.10
2019-04-10T15:49:05.222Z,48.20
2019-04-10T15:51:34.662Z,48.40
2019-04-10T15:54:05.506Z,48.40
2019-04-10T15:56:36.059Z,49.60
2019-04-10T15:59:06.034Z,48.90
2019-04-10T16:01:35.510Z,49.20
2019-04-10T16:04:05.263Z,49.00
2019-04-10T16:06:35.546Z,49.00
2019-04-10T16:09:07.248Z,49.70
2019-04-10T16:11:38.322Z,49.10
2019-04-10T16:14:20.016Z,49.70
2019-04-10T16:16:59.155Z,49.40
2019-04-10T16:19:30.962Z,49.30
2019-04-10T16:22:01.117Z,49.70
2019-04-10T16:24:31.141Z,49.30
2019-04-10T16:27:00.733Z,49.60
2019-04-10T16:29:30.075Z,50.40
2019-04-10T16:32:00.012Z,49.80
2019-04-10T16:34:30.326Z,50.00
2019-04-10T16:37:00.008Z,50.10
2019-04-10T16:39:29.982Z,50.20
2019-04-10T16:42:00.044Z,50.40
2019-04-10T16:44:29.610Z,50.40
2019-04-10T16:46:58.997Z,50.20
2019-04-10T16:49:28.878Z,50.10
2019-04-10T16:51:58.754Z,50.50
2019-04-10T16:54:29.233Z,50.00
2019-04-10T16:56:58.706Z,50.80
2019-04-10T16:59:28.106Z,50.20
2019-04-10T17:01:57.542Z,50.90
2019-04-10T17:04:27.781Z,50.20
2019-04-10T17:06:57.363Z,50.30
2019-04-10T17:09:27.257Z,50.20
2019-04-10T17:11:58.587Z,51.30
2019-04-10T17:14:29.221Z,50.50
2019-04-10T17:16:58.844Z,50.80
2019-04-10T17:19:28.759Z,49.60
2019-04-10T17:21:58.810Z,49.70
2019-04-10T17:24:29.279Z,50.80
2019-04-10T17:26:59.340Z,50.60
2019-04-10T17:29:29.374Z,50.60
2019-04-10T17:31:59.254Z,50.70
2019-04-10T17:34:28.632Z,50.50
2019-04-10T17:36:59.087Z,51.30
2019-04-10T17:39:28.781Z,51.50
2019-04-10T17:41:59.649Z,51.60
2019-04-10T17:44:29.677Z,51.40
2019-04-10T17:46:59.623Z,50.80
2019-04-10T17:49:29.869Z,50.80
2019-04-10T17:52:00.469Z,51.20
2019-04-10T17:54:31.433Z,51.00
2019-04-10T17:57:02.212Z,50.90
2019-04-10T17:59:32.318Z,50.90
2019-04-10T18:02:03.455Z,51.20
2019-04-10T18:04:33.850Z,50.80
2019-04-10T18:07:03.924Z,51.60
2019-04-10T18:09:34.701Z,52.10
2019-04-10T18:12:06.041Z,52.70
2019-04-10T18:14:37.963Z,52.30
2019-04-10T18:17:07.442Z,52.40
2019-04-10T18:19:38.512Z,52.00
2019-04-10T18:22:08.108Z,52.10
2019-04-10T18:24:38.096Z,53.50
2019-04-10T18:27:07.944Z,53.50
2019-04-10T18:29:37.532Z,53.90
2019-04-10T18:32:07.554Z,54.20
2019-04-10T18:34:38.206Z,53.50
2019-04-10T18:37:09.294Z,54.70
2019-04-10T18:39:38.861Z,54.50
2019-04-10T18:42:09.658Z,54.30
2019-04-10T18:44:39.588Z,53.90
2019-04-10T18:47:09.103Z,54.60
2019-04-10T18:49:38.584Z,54.30
2019-04-10T18:52:08.051Z,53.90
2019-04-10T18:54:37.605Z,53.60
2019-04-10T18:57:07.394Z,53.80
2019-04-10T18:59:38.627Z,54.80
2019-04-10T19:02:18.564Z,54.30
2019-04-10T19:04:49.604Z,54.10
2019-04-10T19:07:19.158Z,54.40
2019-04-10T19:10:00.366Z,55.30
2019-04-10T19:12:29.731Z,54.40
2019-04-10T19:14:59.104Z,54.50
2019-04-10T19:17:28.791Z,55.00
2019-04-10T19:19:58.798Z,55.40
2019-04-10T19:22:28.562Z,56.70
2019-04-10T19:24:58.352Z,56.10
2019-04-10T19:27:28.470Z,56.50
2019-04-10T19:29:58.891Z,56.60
2019-04-10T19:32:33.391Z,56.20
2019-04-10T19:35:02.880Z,56.50
2019-04-10T19:37:32.508Z,56.80
2019-04-10T19:40:05.031Z,57.10
2019-04-10T19:42:35.646Z,56.80
2019-04-10T19:45:08.043Z,56.50
2019-04-10T19:47:38.835Z,56.30
2019-04-10T19:50:08.962Z,56.20
2019-04-10T19:52:38.697Z,56.00
2019-04-10T19:55:08.585Z,55.20
2019-04-10T19:57:57.646Z,55.60
2019-04-10T20:00:28.646Z,56.10
2019-04-10T20:02:59.366Z,56.30
2019-04-10T20:05:29.592Z,54.50
2019-04-10T20:07:59.664Z,56.40
2019-04-10T20:10:29.708Z,56.30
2019-04-10T20:12:59.587Z,56.00
2019-04-10T20:15:28.957Z,55.20
2019-04-10T20:17:58.311Z,54.50
2019-04-10T20:20:28.976Z,55.00
2019-04-10T20:22:58.399Z,54.30
2019-04-10T20:25:27.755Z,55.00
2019-04-10T20:27:58.283Z,54.50
2019-04-10T20:30:30.000Z,55.10
2019-04-10T20:33:00.652Z,54.40
2019-04-10T20:35:30.370Z,54.30
2019-04-10T20:38:00.921Z,54.20
2019-04-10T20:40:30.773Z,54.60
2019-04-10T20:43:00.139Z,55.20
2019-04-10T20:45:29.871Z,54.50
2019-04-10T20:48:00.251Z,54.50
2019-04-10T20:50:30.019Z,54.80
2019-04-10T20:52:59.847Z,54.60
2019-04-10T20:55:29.982Z,54.50
2019-04-10T20:57:59.734Z,54.80
2019-04-10T21:00:32.111Z,55.10
2019-04-10T21:03:02.757Z,55.30
2019-04-10T21:05:32.269Z,55.20
2019-04-10T21:08:02.113Z,55.10
2019-04-10T21:10:31.794Z,55.60
2019-04-10T21:13:01.203Z,54.60
2019-04-10T21:15:30.877Z,55.30
2019-04-10T21:18:00.246Z,55.60
2019-04-10T21:20:29.609Z,55.60
2019-04-10T21:22:58.982Z,55.60
2019-04-10T21:25:28.344Z,55.10
2019-04-10T21:27:57.981Z,55.40
2019-04-10T21:30:31.806Z,56.00
2019-04-10T21:33:12.139Z,55.50
2019-04-10T21:35:42.123Z,55.60
2019-04-10T21:38:11.644Z,55.70
2019-04-10T21:40:41.225Z,55.80
2019-04-10T21:43:10.751Z,56.50
2019-04-10T21:45:41.219Z,56.00
2019-04-10T21:48:10.762Z,56.10
2019-04-10T21:50:40.137Z,55.70
2019-04-10T21:53:10.159Z,56.40
2019-04-10T21:55:39.631Z,56.40
2019-04-10T21:58:10.142Z,56.20
2019-04-10T22:00:51.103Z,56.10
2019-04-10T22:03:21.161Z,56.50
2019-04-10T22:06:09.254Z,56.10
2019-04-10T22:08:41.421Z,56.50
2019-04-10T22:11:11.072Z,57.00
2019-04-10T22:13:40.443Z,56.80
2019-04-10T22:16:11.573Z,57.20
2019-04-10T22:18:41.469Z,56.90
2019-04-10T22:21:10.915Z,56.60
2019-04-10T22:23:40.544Z,57.20
2019-04-10T22:26:09.988Z,57.20
2019-04-10T22:28:39.420Z,56.70
2019-04-10T22:31:09.613Z,56.90
2019-04-10T22:33:39.162Z,57.30
2019-04-10T22:36:09.236Z,57.10
2019-04-10T22:38:39.819Z,56.80
2019-04-10T22:41:20.674Z,56.80
2019-04-10T22:43:40.776Z,57.50
2019-04-10T22:46:10.960Z,57.20
2019-04-10T22:48:41.543Z,56.50
2019-04-10T22:51:11.228Z,56.80
2019-04-10T22:53:41.696Z,56.70
2019-04-10T22:56:11.220Z,57.10
2019-04-10T22:58:41.521Z,56.80
2019-04-10T23:01:13.138Z,57.20
2019-04-10T23:03:43.271Z,56.70
2019-04-10T23:06:13.283Z,57.50
2019-04-10T23:08:42.738Z,56.90
2019-04-10T23:11:13.152Z,57.30
2019-04-10T23:13:42.574Z,57.40
2019-04-10T23:16:15.346Z,56.90
2019-04-10T23:18:43.087Z,57.60
2019-04-10T23:21:12.458Z,57.40
2019-04-10T23:23:43.212Z,57.50
2019-04-10T23:26:13.314Z,57.90
2019-04-10T23:28:44.006Z,57.20
2019-04-10T23:31:13.485Z,58.30
2019-04-10T23:33:43.964Z,58.30
2019-04-10T23:36:13.955Z,58.30
2019-04-10T23:38:43.769Z,58.40
2019-04-10T23:41:13.664Z,57.50
2019-04-10T23:43:44.029Z,57.40
2019-04-10T23:46:14.502Z,58.70
2019-04-10T23:48:44.698Z,58.20
2019-04-10T23:51:14.749Z,58.60
2019-04-10T23:53:44.796Z,58.00
2019-04-10T23:56:14.234Z,58.20
2019-04-10T23:58:44.443Z,59.50
